sensor_id;sensor_type;location;lat;lon;timestamp;pressure;altitude;pressure_sealevel;temperature;humidity
6134;BME280;3098;42.678;23.364;2023-03-17T00:00:23;95079.59;;;1.27;100.00
6134;BME280;3098;42.678;23.364;2023-03-17T00:02:52;95084.53;;;1.23;100.00
6134;BME280;3098;42.678;23.364;2023-03-17T00:05:23;95018.84;;;0.88;100.00
6134;BME280;3098;42.678;23.364;2023-03-17T00:07:52;95087.97;;;1.29;100.00
6134;BME280;3098;42.678;23.364;2023-03-17T00:10:21;95088.47;;;1.26;100.00
6134;BME280;3098;42.678;23.364;2023-03-17T00:12:50;95088.47;;;1.26;100.00
6134;BME280;3098;42.678;23.364;2023-03-17T00:15:18;95084.59;;;1.06;100.00
6134;BME280;3098;42.678;23.364;2023-03-17T00:17:46;95097.97;;;1.10;100.00
6134;BME280;3098;42.678;23.364;2023-03-17T00:20:23;95094.38;;;1.16;100.00
6134;BME280;3098;42.678;23.364;2023-03-17T00:22:51;95094.38;;;1.16;100.00
6134;BME280;3098;42.678;23.364;2023-03-17T00:25:22;95095.16;;;1.16;100.00
6134;BME280;3098;42.678;23.364;2023-03-17T00:27:50;95087.63;;;1.20;100.00
6134;BME280;3098;42.678;23.364;2023-03-17T00:30:18;95051.56;;;0.95;100.00
6134;BME280;3098;42.678;23.364;2023-03-17T00:32:46;95069.78;;;1.12;100.00
6134;BME280;3098;42.678;23.364;2023-03-17T00:35:18;95085.53;;;1.22;100.00
6134;BME280;3098;42.678;23.364;2023-03-17T00:37:49;95093.31;;;1.17;100.00
6134;BME280;3098;42.678;23.364;2023-03-17T00:40:20;95087.09;;;1.18;100.00
6134;BME280;3098;42.678;23.364;2023-03-17T00:42:48;95091.03;;;1.21;100.00
6134;BME280;3098;42.678;23.364;2023-03-17T00:45:15;95081.91;;;1.23;100.00
6134;BME280;3098;42.678;23.364;2023-03-17T00:47:42;95047.19;;;1.01;100.00
6134;BME280;3098;42.678;23.364;2023-03-17T00:50:12;95073.41;;;1.11;100.00
6134;BME280;3098;42.678;23.364;2023-03-17T00:52:40;95087.13;;;1.23;100.00
6134;BME280;3098;42.678;23.364;2023-03-17T00:55:09;95096.88;;;1.28;100.00
6134;BME280;3098;42.678;23.364;2023-03-17T00:57:36;95091.50;;;1.17;100.00
6134;BME280;3098;42.678;23.364;2023-03-17T01:00:09;95090.22;;;1.20;100.00
6134;BME280;3098;42.678;23.364;2023-03-17T01:02:43;95081.00;;;1.12;100.00
6134;BME280;3098;42.678;23.364;2023-03-17T01:05:11;95099.72;;;1.26;100.00
6134;BME280;3098;42.678;23.364;2023-03-17T01:07:38;95081.25;;;1.11;100.00
6134;BME280;3098;42.678;23.364;2023-03-17T01:10:14;95098.91;;;1.26;100.00
6134;BME280;3098;42.678;23.364;2023-03-17T01:12:42;95102.31;;;1.26;100.00
6134;BME280;3098;42.678;23.364;2023-03-17T01:15:10;95085.53;;;1.22;100.00
6134;BME280;3098;42.678;23.364;2023-03-17T01:17:37;95107.69;;;1.36;100.00
6134;BME280;3098;42.678;23.364;2023-03-17T01:20:06;95104.28;;;1.36;100.00
6134;BME280;3098;42.678;23.364;2023-03-17T01:22:33;95087.09;;;1.18;100.00
6134;BME280;3098;42.678;23.364;2023-03-17T01:25:01;95060.25;;;1.01;100.00
6134;BME280;3098;42.678;23.364;2023-03-17T01:27:34;95087.75;;;1.08;100.00
6134;BME280;3098;42.678;23.364;2023-03-17T01:30:02;95097.03;;;1.21;100.00
6134;BME280;3098;42.678;23.364;2023-03-17T01:32:29;95087.63;;;1.20;100.00
6134;BME280;3098;42.678;23.364;2023-03-17T01:34:57;95100.72;;;1.25;100.00
6134;BME280;3098;42.678;23.364;2023-03-17T01:37:24;95082.09;;;1.16;100.00
6134;BME280;3098;42.678;23.364;2023-03-17T01:39:51;95084.69;;;1.16;100.00
6134;BME280;3098;42.678;23.364;2023-03-17T01:42:18;95107.09;;;1.34;100.00
6134;BME280;3098;42.678;23.364;2023-03-17T01:45:06;95100.56;;;1.32;100.00
6134;BME280;3098;42.678;23.364;2023-03-17T01:47:35;95098.19;;;1.30;100.00
6134;BME280;3098;42.678;23.364;2023-03-17T01:50:05;95105.81;;;1.37;100.00
6134;BME280;3098;42.678;23.364;2023-03-17T01:52:35;95106.75;;;1.47;100.00
6134;BME280;3098;42.678;23.364;2023-03-17T01:55:06;94985.47;;;0.68;100.00
6134;BME280;3098;42.678;23.364;2023-03-17T01:57:37;95065.38;;;1.17;100.00
6134;BME280;3098;42.678;23.364;2023-03-17T02:00:08;95107.50;;;1.48;100.00
6134;BME280;3098;42.678;23.364;2023-03-17T02:02:38;95090.59;;;1.29;100.00
6134;BME280;3098;42.678;23.364;2023-03-17T02:05:09;95066.19;;;1.18;100.00
6134;BME280;3098;42.678;23.364;2023-03-17T02:07:37;95120.09;;;1.51;100.00
6134;BME280;3098;42.678;23.364;2023-03-17T02:10:06;95106.75;;;1.47;100.00
6134;BME280;3098;42.678;23.364;2023-03-17T02:12:34;95120.03;;;1.46;100.00
6134;BME280;3098;42.678;23.364;2023-03-17T02:15:02;95115.00;;;1.39;100.00
6134;BME280;3098;42.678;23.364;2023-03-17T02:17:31;95126.06;;;1.46;100.00
6134;BME280;3098;42.678;23.364;2023-03-17T02:20:11;95125.88;;;1.53;100.00
6134;BME280;3098;42.678;23.364;2023-03-17T02:22:43;95113.00;;;1.46;100.00
6134;BME280;3098;42.678;23.364;2023-03-17T02:25:11;95120.34;;;1.49;100.00
6134;BME280;3098;42.678;23.364;2023-03-17T02:27:40;95085.25;;;1.19;100.00
6134;BME280;3098;42.678;23.364;2023-03-17T02:30:10;95127.03;;;1.40;100.00
6134;BME280;3098;42.678;23.364;2023-03-17T02:32:38;95107.94;;;1.40;100.00
6134;BME280;3098;42.678;23.364;2023-03-17T02:35:06;95132.03;;;1.42;100.00
6134;BME280;3098;42.678;23.364;2023-03-17T02:37:34;95129.34;;;1.37;100.00
6134;BME280;3098;42.678;23.364;2023-03-17T02:40:05;95133.06;;;1.41;100.00
6134;BME280;3098;42.678;23.364;2023-03-17T02:42:33;95125.59;;;1.28;100.00
6134;BME280;3098;42.678;23.364;2023-03-17T02:45:00;95148.00;;;1.45;100.00
6134;BME280;3098;42.678;23.364;2023-03-17T02:47:27;95120.59;;;1.26;100.00
6134;BME280;3098;42.678;23.364;2023-03-17T02:49:54;95135.63;;;1.36;100.00
6134;BME280;3098;42.678;23.364;2023-03-17T02:52:21;95144.41;;;1.51;100.00
6134;BME280;3098;42.678;23.364;2023-03-17T02:54:48;95153.53;;;1.49;100.00
6134;BME280;3098;42.678;23.364;2023-03-17T02:57:16;95151.19;;;1.47;100.00
6134;BME280;3098;42.678;23.364;2023-03-17T02:59:43;95137.50;;;1.40;100.00
6134;BME280;3098;42.678;23.364;2023-03-17T03:02:11;95141.38;;;1.38;100.00
6134;BME280;3098;42.678;23.364;2023-03-17T03:04:38;95133.97;;;1.30;100.00
6134;BME280;3098;42.678;23.364;2023-03-17T03:07:06;95153.06;;;1.30;100.00
6134;BME280;3098;42.678;23.364;2023-03-17T03:09:33;95159.81;;;1.26;100.00
6134;BME280;3098;42.678;23.364;2023-03-17T03:12:00;95133.97;;;1.08;100.00
6134;BME280;3098;42.678;23.364;2023-03-17T03:14:28;95152.56;;;1.11;100.00
6134;BME280;3098;42.678;23.364;2023-03-17T03:16:56;95156.94;;;1.06;100.00
6134;BME280;3098;42.678;23.364;2023-03-17T03:19:24;95156.72;;;1.07;100.00
6134;BME280;3098;42.678;23.364;2023-03-17T03:21:51;95134.13;;;0.80;100.00
6134;BME280;3098;42.678;23.364;2023-03-17T03:24:18;95169.28;;;1.10;100.00
6134;BME280;3098;42.678;23.364;2023-03-17T03:26:44;95167.53;;;1.16;100.00
6134;BME280;3098;42.678;23.364;2023-03-17T03:29:11;95162.94;;;1.06;100.00
6134;BME280;3098;42.678;23.364;2023-03-17T03:31:40;95174.78;;;1.14;100.00
6134;BME280;3098;42.678;23.364;2023-03-17T03:34:07;95157.97;;;1.05;100.00
6134;BME280;3098;42.678;23.364;2023-03-17T03:36:34;95176.44;;;1.20;100.00
6134;BME280;3098;42.678;23.364;2023-03-17T03:39:02;95098.47;;;0.69;100.00
6134;BME280;3098;42.678;23.364;2023-03-17T03:41:28;95180.97;;;1.25;100.00
6134;BME280;3098;42.678;23.364;2023-03-17T03:43:56;95157.47;;;1.08;100.00
6134;BME280;3098;42.678;23.364;2023-03-17T03:46:22;95165.41;;;1.13;100.00
6134;BME280;3098;42.678;23.364;2023-03-17T03:48:52;95185.94;;;1.26;100.00
6134;BME280;3098;42.678;23.364;2023-03-17T03:51:19;95156.94;;;1.06;100.00
6134;BME280;3098;42.678;23.364;2023-03-17T03:53:47;95190.97;;;1.33;100.00
6134;BME280;3098;42.678;23.364;2023-03-17T03:56:14;95121.44;;;0.88;100.00
6134;BME280;3098;42.678;23.364;2023-03-17T03:58:41;95169.66;;;1.19;100.00
6134;BME280;3098;42.678;23.364;2023-03-17T04:01:08;95189.94;;;1.34;100.00
6134;BME280;3098;42.678;23.364;2023-03-17T04:03:36;95190.25;;;1.37;100.00
6134;BME280;3098;42.678;23.364;2023-03-17T04:06:05;95164.66;;;1.17;100.00
6134;BME280;3098;42.678;23.364;2023-03-17T04:08:33;95197.22;;;1.32;100.00
6134;BME280;3098;42.678;23.364;2023-03-17T04:11:00;95198.63;;;1.39;100.00
6134;BME280;3098;42.678;23.364;2023-03-17T04:13:27;95183.25;;;1.21;100.00
6134;BME280;3098;42.678;23.364;2023-03-17T04:15:54;95186.47;;;1.28;100.00
6134;BME280;3098;42.678;23.364;2023-03-17T04:18:21;95213.59;;;1.44;100.00
6134;BME280;3098;42.678;23.364;2023-03-17T04:20:48;95211.63;;;1.34;100.00
6134;BME280;3098;42.678;23.364;2023-03-17T04:23:17;95199.84;;;1.32;100.00
6134;BME280;3098;42.678;23.364;2023-03-17T04:25:44;95216.31;;;1.32;100.00
6134;BME280;3098;42.678;23.364;2023-03-17T04:28:12;95226.84;;;1.37;100.00
6134;BME280;3098;42.678;23.364;2023-03-17T04:30:39;95131.41;;;0.91;100.00
6134;BME280;3098;42.678;23.364;2023-03-17T04:33:06;95214.31;;;1.39;100.00
6134;BME280;3098;42.678;23.364;2023-03-17T04:35:33;95220.03;;;1.36;100.00
6134;BME280;3098;42.678;23.364;2023-03-17T04:38:00;95220.59;;;1.38;100.00
6134;BME280;3098;42.678;23.364;2023-03-17T04:40:29;95219.50;;;1.56;100.00
6134;BME280;3098;42.678;23.364;2023-03-17T04:42:56;95221.00;;;1.52;100.00
6134;BME280;3098;42.678;23.364;2023-03-17T04:45:23;95221.75;;;1.47;100.00
6134;BME280;3098;42.678;23.364;2023-03-17T04:47:50;95231.81;;;1.60;100.00
6134;BME280;3098;42.678;23.364;2023-03-17T04:50:17;95192.31;;;1.35;100.00
6134;BME280;3098;42.678;23.364;2023-03-17T04:52:44;95221.75;;;1.47;100.00
6134;BME280;3098;42.678;23.364;2023-03-17T04:55:11;95225.81;;;1.38;100.00
6134;BME280;3098;42.678;23.364;2023-03-17T04:57:39;95238.44;;;1.46;100.00
6134;BME280;3098;42.678;23.364;2023-03-17T05:00:07;95245.69;;;1.61;100.00
6134;BME280;3098;42.678;23.364;2023-03-17T05:02:36;95242.13;;;1.67;100.00
6134;BME280;3098;42.678;23.364;2023-03-17T05:05:04;95244.47;;;1.68;100.00
6134;BME280;3098;42.678;23.364;2023-03-17T05:07:31;95190.56;;;1.41;100.00
6134;BME280;3098;42.678;23.364;2023-03-17T05:09:58;95248.69;;;1.69;100.00
6134;BME280;3098;42.678;23.364;2023-03-17T05:12:25;95228.06;;;1.51;100.00
6134;BME280;3098;42.678;23.364;2023-03-17T05:14:53;95249.53;;;1.75;100.00
6134;BME280;3098;42.678;23.364;2023-03-17T05:17:20;95243.13;;;1.66;100.00
6134;BME280;3098;42.678;23.364;2023-03-17T05:19:47;95252.38;;;1.73;100.00
6134;BME280;3098;42.678;23.364;2023-03-17T05:22:14;95269.34;;;1.93;100.00
6134;BME280;3098;42.678;23.364;2023-03-17T05:24:41;95269.28;;;1.88;100.00
6134;BME280;3098;42.678;23.364;2023-03-17T05:27:09;95261.16;;;1.84;100.00
6134;BME280;3098;42.678;23.364;2023-03-17T05:29:36;95258.28;;;1.86;100.00
6134;BME280;3098;42.678;23.364;2023-03-17T05:32:05;95268.00;;;1.90;100.00
6134;BME280;3098;42.678;23.364;2023-03-17T05:34:32;95279.44;;;2.06;100.00
6134;BME280;3098;42.678;23.364;2023-03-17T05:36:59;95268.53;;;2.14;100.00
6134;BME280;3098;42.678;23.364;2023-03-17T05:39:26;95266.88;;;2.08;100.00
6134;BME280;3098;42.678;23.364;2023-03-17T05:41:53;95266.44;;;2.16;100.00
6134;BME280;3098;42.678;23.364;2023-03-17T05:44:21;95272.78;;;2.20;100.00
6134;BME280;3098;42.678;23.364;2023-03-17T05:46:48;95265.69;;;2.15;100.00
6134;BME280;3098;42.678;23.364;2023-03-17T05:49:17;95285.38;;;2.23;100.00
6134;BME280;3098;42.678;23.364;2023-03-17T05:51:44;95275.88;;;2.17;100.00
6134;BME280;3098;42.678;23.364;2023-03-17T05:54:11;95285.97;;;2.30;100.00
6134;BME280;3098;42.678;23.364;2023-03-17T05:56:38;95280.19;;;2.28;100.00
6134;BME280;3098;42.678;23.364;2023-03-17T05:59:07;95288.53;;;2.25;100.00
6134;BME280;3098;42.678;23.364;2023-03-17T06:01:35;95292.91;;;2.41;100.00
6134;BME280;3098;42.678;23.364;2023-03-17T06:04:01;95214.78;;;2.01;100.00
6134;BME280;3098;42.678;23.364;2023-03-17T06:06:30;95272.38;;;2.33;100.00
6134;BME280;3098;42.678;23.364;2023-03-17T06:08:57;95311.16;;;2.63;100.00
6134;BME280;3098;42.678;23.364;2023-03-17T06:11:24;95247.06;;;2.12;100.00
6134;BME280;3098;42.678;23.364;2023-03-17T06:13:51;95324.06;;;2.69;100.00
6134;BME280;3098;42.678;23.364;2023-03-17T06:16:19;95319.94;;;2.78;100.00
6134;BME280;3098;42.678;23.364;2023-03-17T06:18:45;95331.25;;;2.84;100.00
6134;BME280;3098;42.678;23.364;2023-03-17T06:21:13;95336.31;;;2.90;100.00
6134;BME280;3098;42.678;23.364;2023-03-17T06:23:42;95326.81;;;2.84;100.00
6134;BME280;3098;42.678;23.364;2023-03-17T06:26:09;95279.44;;;2.59;100.00
6134;BME280;3098;42.678;23.364;2023-03-17T06:28:36;95335.03;;;2.98;100.00
6134;BME280;3098;42.678;23.364;2023-03-17T06:31:03;95322.97;;;2.92;100.00
6134;BME280;3098;42.678;23.364;2023-03-17T06:33:30;95333.88;;;3.16;100.00
6134;BME280;3098;42.678;23.364;2023-03-17T06:35:57;95332.97;;;3.32;100.00
6134;BME280;3098;42.678;23.364;2023-03-17T06:38:25;95255.06;;;2.85;100.00
6134;BME280;3098;42.678;23.364;2023-03-17T06:40:54;95334.03;;;3.36;100.00
6134;BME280;3098;42.678;23.364;2023-03-17T06:43:22;95187.78;;;2.59;100.00
6134;BME280;3098;42.678;23.364;2023-03-17T06:45:49;95340.72;;;3.54;100.00
6134;BME280;3098;42.678;23.364;2023-03-17T06:48:16;95338.41;;;3.62;100.00
6134;BME280;3098;42.678;23.364;2023-03-17T06:50:43;95342.09;;;3.66;100.00
6134;BME280;3098;42.678;23.364;2023-03-17T06:53:11;95266.81;;;3.15;100.00
6134;BME280;3098;42.678;23.364;2023-03-17T06:55:38;95257.72;;;3.32;100.00
6134;BME280;3098;42.678;23.364;2023-03-17T06:58:08;95350.66;;;3.93;100.00
6134;BME280;3098;42.678;23.364;2023-03-17T07:00:37;95318.34;;;3.83;100.00
6134;BME280;3098;42.678;23.364;2023-03-17T07:03:05;95315.47;;;3.89;100.00
6134;BME280;3098;42.678;23.364;2023-03-17T07:05:32;95351.09;;;4.37;100.00
6134;BME280;3098;42.678;23.364;2023-03-17T07:07:59;95299.72;;;3.84;100.00
6134;BME280;3098;42.678;23.364;2023-03-17T07:10:25;95352.03;;;4.06;100.00
6134;BME280;3098;42.678;23.364;2023-03-17T07:12:56;95308.16;;;3.91;100.00
6134;BME280;3098;42.678;23.364;2023-03-17T07:15:24;95352.97;;;4.37;100.00
6134;BME280;3098;42.678;23.364;2023-03-17T07:17:54;95367.03;;;4.11;100.00
6134;BME280;3098;42.678;23.364;2023-03-17T07:20:21;95329.50;;;4.15;100.00
6134;BME280;3098;42.678;23.364;2023-03-17T07:22:48;95310.56;;;4.08;100.00
6134;BME280;3098;42.678;23.364;2023-03-17T07:25:16;95354.00;;;4.36;100.00
6134;BME280;3098;42.678;23.364;2023-03-17T07:27:43;95362.97;;;4.55;100.00
6134;BME280;3098;42.678;23.364;2023-03-17T07:30:11;95358.59;;;4.86;100.00
6134;BME280;3098;42.678;23.364;2023-03-17T07:32:44;95324.16;;;5.02;100.00
6134;BME280;3098;42.678;23.364;2023-03-17T07:35:11;95367.56;;;5.25;100.00
6134;BME280;3098;42.678;23.364;2023-03-17T07:37:40;95336.53;;;4.82;100.00
6134;BME280;3098;42.678;23.364;2023-03-17T07:40:08;95317.84;;;4.88;100.00
6134;BME280;3098;42.678;23.364;2023-03-17T07:42:36;95368.91;;;5.28;100.00
6134;BME280;3098;42.678;23.364;2023-03-17T07:45:04;95358.91;;;5.35;100.00
6134;BME280;3098;42.678;23.364;2023-03-17T07:47:37;95344.16;;;5.29;100.00
6134;BME280;3098;42.678;23.364;2023-03-17T07:50:07;95381.25;;;5.27;100.00
6134;BME280;3098;42.678;23.364;2023-03-17T07:52:35;95270.00;;;4.56;100.00
6134;BME280;3098;42.678;23.364;2023-03-17T07:55:02;95380.22;;;5.33;100.00
6134;BME280;3098;42.678;23.364;2023-03-17T07:57:29;95378.91;;;5.36;100.00
6134;BME280;3098;42.678;23.364;2023-03-17T07:59:57;95354.16;;;5.27;100.00
6134;BME280;3098;42.678;23.364;2023-03-17T08:02:25;95353.38;;;5.26;100.00
6134;BME280;3098;42.678;23.364;2023-03-17T08:04:52;95259.50;;;4.66;100.00
6134;BME280;3098;42.678;23.364;2023-03-17T08:07:23;95313.38;;;4.94;100.00
6134;BME280;3098;42.678;23.364;2023-03-17T08:09:50;95391.53;;;5.39;100.00
6134;BME280;3098;42.678;23.364;2023-03-17T08:12:18;95387.84;;;5.55;100.00
6134;BME280;3098;42.678;23.364;2023-03-17T08:14:46;95385.72;;;5.27;100.00
6134;BME280;3098;42.678;23.364;2023-03-17T08:17:13;95329.69;;;5.01;100.00
6134;BME280;3098;42.678;23.364;2023-03-17T08:19:41;95373.91;;;5.19;100.00
6134;BME280;3098;42.678;23.364;2023-03-17T08:22:11;95383.13;;;5.42;100.00
6134;BME280;3098;42.678;23.364;2023-03-17T08:24:39;95387.84;;;5.50;100.00
6134;BME280;3098;42.678;23.364;2023-03-17T08:27:07;95386.53;;;5.52;100.00
6134;BME280;3098;42.678;23.364;2023-03-17T08:29:34;95383.59;;;5.79;100.00
6134;BME280;3098;42.678;23.364;2023-03-17T08:32:01;95337.31;;;5.53;100.00
6134;BME280;3098;42.678;23.364;2023-03-17T08:34:29;95389.91;;;5.93;100.00
6134;BME280;3098;42.678;23.364;2023-03-17T08:36:56;95389.91;;;5.83;100.00
6134;BME280;3098;42.678;23.364;2023-03-17T08:39:23;95365.47;;;5.67;100.00
6134;BME280;3098;42.678;23.364;2023-03-17T08:41:52;95388.44;;;6.51;100.00
6134;BME280;3098;42.678;23.364;2023-03-17T08:44:19;95387.56;;;6.71;100.00
6134;BME280;3098;42.678;23.364;2023-03-17T08:46:46;95391.53;;;6.68;99.00
6134;BME280;3098;42.678;23.364;2023-03-17T08:49:14;95395.09;;;6.28;99.13
6134;BME280;3098;42.678;23.364;2023-03-17T08:51:42;95358.59;;;5.76;99.57
6134;BME280;3098;42.678;23.364;2023-03-17T08:54:10;95337.53;;;5.76;100.00
6134;BME280;3098;42.678;23.364;2023-03-17T08:56:38;95362.25;;;6.06;100.00
6134;BME280;3098;42.678;23.364;2023-03-17T08:59:08;95312.84;;;5.57;98.19
6134;BME280;3098;42.678;23.364;2023-03-17T09:01:35;95392.03;;;5.76;98.22
6134;BME280;3098;42.678;23.364;2023-03-17T09:04:03;95375.75;;;5.44;98.07
6134;BME280;3098;42.678;23.364;2023-03-17T09:06:30;95392.53;;;5.93;98.56
6134;BME280;3098;42.678;23.364;2023-03-17T09:08:56;95392.56;;;5.78;99.29
6134;BME280;3098;42.678;23.364;2023-03-17T09:11:26;95391.00;;;5.67;98.12
6134;BME280;3098;42.678;23.364;2023-03-17T09:13:54;95404.13;;;5.72;99.07
6134;BME280;3098;42.678;23.364;2023-03-17T09:16:24;95393.06;;;6.00;98.93
6134;BME280;3098;42.678;23.364;2023-03-17T09:18:52;95397.47;;;6.35;98.02
6134;BME280;3098;42.678;23.364;2023-03-17T09:21:19;95397.94;;;6.52;96.47
6134;BME280;3098;42.678;23.364;2023-03-17T09:23:46;95401.69;;;6.90;94.16
6134;BME280;3098;42.678;23.364;2023-03-17T09:26:14;95394.31;;;6.87;90.73
6134;BME280;3098;42.678;23.364;2023-03-17T09:28:41;95386.97;;;6.84;88.51
6134;BME280;3098;42.678;23.364;2023-03-17T09:31:10;95400.78;;;6.66;88.55
6134;BME280;3098;42.678;23.364;2023-03-17T09:33:39;95384.00;;;7.01;88.12
6134;BME280;3098;42.678;23.364;2023-03-17T09:36:07;95385.16;;;7.18;86.79
6134;BME280;3098;42.678;23.364;2023-03-17T09:38:37;95401.03;;;7.52;87.66
6134;BME280;3098;42.678;23.364;2023-03-17T09:41:25;95403.03;;;7.31;87.38
6134;BME280;3098;42.678;23.364;2023-03-17T09:44:02;95398.03;;;7.64;87.75
6134;BME280;3098;42.678;23.364;2023-03-17T09:46:41;95396.72;;;7.66;85.88
6134;BME280;3098;42.678;23.364;2023-03-17T09:49:16;95395.75;;;7.86;83.54
6134;BME280;3098;42.678;23.364;2023-03-17T09:51:45;95408.56;;;7.69;84.59
6134;BME280;3098;42.678;23.364;2023-03-17T09:54:17;95406.31;;;7.52;84.89
6134;BME280;3098;42.678;23.364;2023-03-17T09:56:48;95382.53;;;7.23;83.92
6134;BME280;3098;42.678;23.364;2023-03-17T09:59:27;95411.59;;;7.13;85.30
6134;BME280;3098;42.678;23.364;2023-03-17T10:01:55;95406.59;;;7.07;84.98
6134;BME280;3098;42.678;23.364;2023-03-17T10:04:24;95391.91;;;6.95;84.13
6134;BME280;3098;42.678;23.364;2023-03-17T10:06:56;95358.78;;;6.79;84.66
6134;BME280;3098;42.678;23.364;2023-03-17T10:09:31;95413.69;;;7.16;83.55
6134;BME280;3098;42.678;23.364;2023-03-17T10:12:03;95366.03;;;7.03;84.50
6134;BME280;3098;42.678;23.364;2023-03-17T10:14:44;95335.88;;;6.70;82.31
6134;BME280;3098;42.678;23.364;2023-03-17T10:17:16;95377.50;;;6.83;81.63
6134;BME280;3098;42.678;23.364;2023-03-17T10:19:51;95408.94;;;7.13;80.11
6134;BME280;3098;42.678;23.364;2023-03-17T10:22:23;95409.59;;;6.90;80.03
6134;BME280;3098;42.678;23.364;2023-03-17T10:24:57;95408.75;;;7.05;79.87
6134;BME280;3098;42.678;23.364;2023-03-17T10:27:26;95409.19;;;7.17;79.88
6134;BME280;3098;42.678;23.364;2023-03-17T10:29:55;95401.97;;;7.32;77.97
6134;BME280;3098;42.678;23.364;2023-03-17T10:32:22;95404.25;;;7.49;77.32
6134;BME280;3098;42.678;23.364;2023-03-17T10:34:50;95403.00;;;7.36;75.86
6134;BME280;3098;42.678;23.364;2023-03-17T10:37:23;95378.53;;;7.26;76.76
6134;BME280;3098;42.678;23.364;2023-03-17T10:39:53;95327.81;;;7.00;74.64
6134;BME280;3098;42.678;23.364;2023-03-17T10:42:23;95400.72;;;7.59;73.60
6134;BME280;3098;42.678;23.364;2023-03-17T10:44:53;95375.63;;;6.88;72.72
6134;BME280;3098;42.678;23.364;2023-03-17T10:47:32;95367.94;;;6.43;75.65
6134;BME280;3098;42.678;23.364;2023-03-17T10:50:17;95398.78;;;6.38;76.58
6134;BME280;3098;42.678;23.364;2023-03-17T10:52:45;95371.72;;;6.81;76.76
6134;BME280;3098;42.678;23.364;2023-03-17T10:55:15;95388.41;;;7.44;75.30
6134;BME280;3098;42.678;23.364;2023-03-17T10:57:51;95381.09;;;7.70;74.58
6134;BME280;3098;42.678;23.364;2023-03-17T11:00:20;95378.75;;;7.68;71.63
6134;BME280;3098;42.678;23.364;2023-03-17T11:02:54;95357.31;;;7.98;71.76
6134;BME280;3098;42.678;23.364;2023-03-17T11:05:24;95369.34;;;8.38;71.94
6134;BME280;3098;42.678;23.364;2023-03-17T11:08:05;95355.59;;;8.60;71.82
6134;BME280;3098;42.678;23.364;2023-03-17T11:10:36;95289.28;;;8.56;68.51
6134;BME280;3098;42.678;23.364;2023-03-17T11:13:03;95355.13;;;8.34;67.98
6134;BME280;3098;42.678;23.364;2023-03-17T11:15:32;95297.41;;;7.94;69.00
6134;BME280;3098;42.678;23.364;2023-03-17T11:18:02;95329.28;;;8.68;67.49
6134;BME280;3098;42.678;23.364;2023-03-17T11:20:45;95358.47;;;9.19;67.89
6134;BME280;3098;42.678;23.364;2023-03-17T11:23:42;95327.16;;;8.71;69.08
6134;BME280;3098;42.678;23.364;2023-03-17T11:26:25;95296.84;;;7.97;70.18
6134;BME280;3098;42.678;23.364;2023-03-17T11:29:10;95324.00;;;9.06;67.30
6134;BME280;3098;42.678;23.364;2023-03-17T11:31:47;95313.91;;;9.27;66.00
6134;BME280;3098;42.678;23.364;2023-03-17T11:34:22;95353.13;;;9.89;63.80
6134;BME280;3098;42.678;23.364;2023-03-17T11:36:57;95359.38;;;9.47;65.22
6134;BME280;3098;42.678;23.364;2023-03-17T11:39:30;95281.72;;;9.19;65.13
6134;BME280;3098;42.678;23.364;2023-03-17T11:42:04;95323.25;;;9.70;64.92
6134;BME280;3098;42.678;23.364;2023-03-17T11:45:16;95337.38;;;11.02;64.05
6134;BME280;3098;42.678;23.364;2023-03-17T11:48:03;95309.28;;;10.87;57.58
6134;BME280;3098;42.678;23.364;2023-03-17T11:50:38;95195.03;;;9.98;57.49
6134;BME280;3098;42.678;23.364;2023-03-17T11:53:25;95333.88;;;10.79;57.19
6134;BME280;3098;42.678;23.364;2023-03-17T11:56:01;95339.97;;;9.98;58.34
6134;BME280;3098;42.678;23.364;2023-03-17T11:58:34;95335.47;;;9.52;60.21
6134;BME280;3098;42.678;23.364;2023-03-17T12:01:05;95338.66;;;10.14;58.85
6134;BME280;3098;42.678;23.364;2023-03-17T12:03:38;95262.72;;;9.63;58.40
6134;BME280;3098;42.678;23.364;2023-03-17T12:06:14;95337.94;;;9.62;59.14
6134;BME280;3098;42.678;23.364;2023-03-17T12:08:50;95335.47;;;10.12;59.18
6134;BME280;3098;42.678;23.364;2023-03-17T12:11:23;95300.38;;;10.20;57.67
6134;BME280;3098;42.678;23.364;2023-03-17T12:13:55;95331.72;;;10.94;54.46
6134;BME280;3098;42.678;23.364;2023-03-17T12:16:30;95327.88;;;11.67;53.30
6134;BME280;3098;42.678;23.364;2023-03-17T12:19:03;95325.66;;;11.61;54.32
6134;BME280;3098;42.678;23.364;2023-03-17T12:21:37;95310.47;;;10.94;51.13
6134;BME280;3098;42.678;23.364;2023-03-17T12:24:15;95317.22;;;10.78;51.15
6134;BME280;3098;42.678;23.364;2023-03-17T12:26:49;95153.72;;;9.29;52.22
6134;BME280;3098;42.678;23.364;2023-03-17T12:29:26;95318.69;;;10.71;52.23
6134;BME280;3098;42.678;23.364;2023-03-17T12:32:04;95318.09;;;10.74;50.88
6134;BME280;3098;42.678;23.364;2023-03-17T12:34:41;95314.84;;;10.77;52.87
6134;BME280;3098;42.678;23.364;2023-03-17T12:37:09;95313.47;;;10.11;54.03
6134;BME280;3098;42.678;23.364;2023-03-17T12:39:44;95256.63;;;9.76;56.94
6134;BME280;3098;42.678;23.364;2023-03-17T12:42:24;95264.75;;;9.39;57.47
6134;BME280;3098;42.678;23.364;2023-03-17T12:45:15;95323.03;;;9.34;59.25
6134;BME280;3098;42.678;23.364;2023-03-17T12:48:05;95311.03;;;9.42;59.18
6134;BME280;3098;42.678;23.364;2023-03-17T12:51:08;95315.94;;;9.48;59.67
6134;BME280;3098;42.678;23.364;2023-03-17T12:53:45;95281.19;;;9.04;62.69
6134;BME280;3098;42.678;23.364;2023-03-17T12:56:18;95315.16;;;9.15;63.77
6134;BME280;3098;42.678;23.364;2023-03-17T12:58:48;95255.72;;;9.08;63.44
6134;BME280;3098;42.678;23.364;2023-03-17T13:01:24;95230.50;;;8.97;62.94
6134;BME280;3098;42.678;23.364;2023-03-17T13:04:03;95234.97;;;8.03;65.85
6134;BME280;3098;42.678;23.364;2023-03-17T13:06:37;95312.66;;;8.26;67.77
6134;BME280;3098;42.678;23.364;2023-03-17T13:09:27;95314.84;;;8.19;68.38
6134;BME280;3098;42.678;23.364;2023-03-17T13:11:57;95311.13;;;8.43;68.00
6134;BME280;3098;42.678;23.364;2023-03-17T13:14:26;95311.25;;;8.33;66.25
6134;BME280;3098;42.678;23.364;2023-03-17T13:17:04;95312.34;;;8.03;64.18
6134;BME280;3098;42.678;23.364;2023-03-17T13:20:10;95296.97;;;8.34;63.64
6134;BME280;3098;42.678;23.364;2023-03-17T13:22:41;95315.56;;;8.24;60.26
6134;BME280;3098;42.678;23.364;2023-03-17T13:25:14;95310.66;;;8.13;61.13
6134;BME280;3098;42.678;23.364;2023-03-17T13:27:53;95314.03;;;8.18;61.99
6134;BME280;3098;42.678;23.364;2023-03-17T13:30:55;95307.19;;;8.41;62.06